This is the latest recevied weather packets stored in our database for station/object KC5AV. If no packets are shown the sender has not sent any weather packets the latest 10 day(s).
| Time | Temp. | Humidity | Pressure | Rain* | Wind** | Luminosity | Snow |
|---|---|---|---|---|---|---|---|
| 1777822751 | 23.89° C | 49% | 1023 hPa | 0 mm | - | 748 W/m² | - |
| 1777822449 | 24.44° C | 50% | 1023.4 hPa | 0 mm | - | 732 W/m² | - |
| 1777822146 | 23.33° C | 53% | 1023.2 hPa | 0 mm | - | 717 W/m² | - |
| 1777821843 | 23.33° C | 53% | 1023.1 hPa | 0 mm | - | 700 W/m² | - |
| 1777821540 | 23.33° C | 52% | 1023.3 hPa | 0 mm | - | 683 W/m² | - |
| 1777821238 | 22.78° C | 52% | 1023.3 hPa | 0 mm | - | 667 W/m² | - |
| 1777820935 | 22.78° C | 53% | 1023 hPa | 0 mm | - | 649 W/m² | - |
| 1777820631 | 22.78° C | 53% | 1023.3 hPa | 0 mm | - | 633 W/m² | - |
| 1777820327 | 22.78° C | 55% | 1023.1 hPa | 0 mm | - | 614 W/m² | - |
| 1777820026 | 22.22° C | 56% | 1023.1 hPa | 0 mm | - | 596 W/m² | - |
| 1777819722 | 22.22° C | 51% | 1023.1 hPa | 0 mm | - | 576 W/m² | - |
| 1777819420 | 22.22° C | 56% | 1023.2 hPa | 0 mm | - | 552 W/m² | - |
| 1777819117 | 21.67° C | 58% | 1023.1 hPa | 0 mm | - | 541 W/m² | - |
| 1777818814 | 21.67° C | 55% | 1023.3 hPa | 0 mm | - | 524 W/m² | - |
| 1777818510 | 21.67° C | 55% | 1023.2 hPa | 0 mm | - | 508 W/m² | - |
| 1777818208 | 21.11° C | 58% | 1023.3 hPa | 0 mm | - | 497 W/m² | - |
| 1777817904 | 21.11° C | 60% | 1023.2 hPa | 0 mm | - | 482 W/m² | - |
| 1777817601 | 20.56° C | 63% | 1023.2 hPa | 0 mm | - | 459 W/m² | - |
| 1777817298 | 20° C | 63% | 1023 hPa | 0 mm | - | 452 W/m² | - |
| 1777816995 | 19.44° C | 67% | 1023.1 hPa | 0 mm | - | 401 W/m² | - |
| 1777816691 | 18.33° C | 72% | 1022.9 hPa | 0 mm | - | 323 W/m² | - |
| 1777816388 | 16.67° C | 78% | 1023.2 hPa | 0 mm | - | 296 W/m² | - |
| 1777816086 | 16.11° C | 84% | 1023.1 hPa | 0 mm | - | 94 W/m² | - |
| 1777815784 | 15° C | 97% | 1023.1 hPa | 0 mm | - | 77 W/m² | - |
| 1777815481 | 13.89° C | 99% | 1023 hPa | 0 mm | - | 78 W/m² | - |
* Rain latest hour (hover to see other rain measurements)
** Current wind speed in m/s (hover to see current wind gust speed)